Terminal Aerodrome Forecast
Issued by NWS

Home | Current Version | Previous Version | Text Only | Print | Product List | Glossary On
Versions: 1 2 3 4 5 6 7 8 9 10 11 12 13 14 15 16 17 18 19 20 21 22 23 24 25 26 27
000
FTUS43 KDDC 230544
TAFGCK
TAF
KGCK 230544Z 2306/2406 15015KT P6SM FEW050 BKN120
     FM231500 19017G26KT P6SM SCT040 SCT300
     FM240000 16015G21KT P6SM VCTS SCT050CB SCT150
     FM240400 16012KT P6SM BKN150=

USA.gov is the U.S. government's official web portal to all federal, state and local government web resources and services.